PWSweather.com
Personal Weather Stations
Station Observations
719732
Ponferrada, PonferradaES 24411

PonferradaPonferradaES 24411

Lat: 42.5728, Lon: -6.6425

Elevation: 1676

Station Type: PCE-FWS 20 con garita Ambient Weather SRS100LX

www.meteo.spyfly.es

High Low Average
Temperature 70.5°F21.4°C 46.2°F7.9°C 58.7°F14.8°C
Dew Point 50.2°F10.1°C 42.2°F5.7°C 46.5°F8.1°C
Winds 18.3 mph 29.5 kmh Calm Calm 5.0 mph WSW8.0 kmh WSW
Wind Gusts 24.4 mph39.3 kmh 1.6 mph2.6 kmh 10.0 mph16.1 kmh
Humidity 95% 41% 66%
Pressure 30.25 in1024.4 mb 30.08 in1018.6 mb -
Precipitation 0.00 in0.0 mm - -
Hour Temp Dew Point Humidity Winds Wind Gusts Pressure Precip Precip Rate Daily Precip Total
12:00 AM 57.0°F13.9°C 50.2°F10.1°C 78% 4.5 mph SSW7.2 kmh SSW 12.1 mph19.5 kmh 30.10 in1019.3 mb 0.00 in0.0 mm 0.00 in0.0 mm 0.00 in0.0 mm
12:05 AM 56.8°F13.8°C 49.7°F9.8°C 77% 4.5 mph SW7.2 kmh SW 9.8 mph15.8 kmh 30.10 in1019.3 mb 0.00 in0.0 mm 0.00 in0.0 mm 0.00 in0.0 mm
12:10 AM 56.3°F13.5°C 49.2°F9.6°C 77% 2.2 mph SSW3.5 kmh SSW 7.6 mph12.2 kmh 30.11 in1019.6 mb 0.00 in0.0 mm 0.00 in0.0 mm 0.00 in0.0 mm
12:15 AM 56.3°F13.5°C 49.2°F9.6°C 77% 4.5 mph WSW7.2 kmh WSW 8.3 mph13.4 kmh 30.11 in1019.6 mb 0.00 in0.0 mm 0.00 in0.0 mm 0.00 in0.0 mm
12:20 AM 56.1°F13.4°C 49.0°F9.4°C 77% 3.1 mph W5.0 kmh W 8.3 mph13.4 kmh 30.10 in1019.3 mb 0.00 in0.0 mm 0.00 in0.0 mm 0.00 in0.0 mm
12:25 AM 55.8°F13.2°C 48.7°F9.3°C 77% 5.4 mph WSW8.7 kmh WSW 7.6 mph12.2 kmh 30.11 in1019.6 mb 0.00 in0.0 mm 0.00 in0.0 mm 0.00 in0.0 mm
12:30 AM 55.4°F13.0°C 48.3°F9.1°C 77% 3.1 mph WNW5.0 kmh WNW 8.3 mph13.4 kmh 30.10 in1019.3 mb 0.00 in0.0 mm 0.00 in0.0 mm 0.00 in0.0 mm
12:35 AM 55.2°F12.9°C 48.1°F8.9°C 77% 4.5 mph NW7.2 kmh NW 8.3 mph13.4 kmh 30.09 in1019.0 mb 0.00 in0.0 mm 0.00 in0.0 mm 0.00 in0.0 mm
12:40 AM 55.0°F12.8°C 47.6°F8.7°C 76% 5.4 mph NNW8.7 kmh NNW 9.2 mph14.8 kmh 30.10 in1019.3 mb 0.00 in0.0 mm 0.00 in0.0 mm 0.00 in0.0 mm
12:45 AM 54.9°F12.7°C 46.7°F8.2°C 74% 5.4 mph NW8.7 kmh NW 9.2 mph14.8 kmh 30.10 in1019.3 mb 0.00 in0.0 mm 0.00 in0.0 mm 0.00 in0.0 mm
12:50 AM 54.9°F12.7°C 46.4°F8.0°C 73% 3.8 mph NW6.1 kmh NW 7.6 mph12.2 kmh 30.10 in1019.3 mb 0.00 in0.0 mm 0.00 in0.0 mm 0.00 in0.0 mm
12:55 AM 54.7°F12.6°C 46.2°F7.9°C 73% 3.1 mph NW5.0 kmh NW 7.6 mph12.2 kmh 30.10 in1019.3 mb 0.00 in0.0 mm 0.00 in0.0 mm 0.00 in0.0 mm
01:00 AM 54.5°F12.5°C 46.4°F8.0°C 74% 0.7 mph NW1.1 kmh NW 7.6 mph12.2 kmh 30.10 in1019.3 mb 0.00 in0.0 mm 0.00 in0.0 mm 0.00 in0.0 mm
01:05 AM 54.5°F12.5°C 46.4°F8.0°C 74% 0.7 mph NNW1.1 kmh NNW 7.6 mph12.2 kmh 30.10 in1019.3 mb 0.00 in0.0 mm 0.00 in0.0 mm 0.00 in0.0 mm
01:10 AM 54.1°F12.3°C 46.4°F8.0°C 75% 1.6 mph NW2.6 kmh NW 3.1 mph5.0 kmh 30.10 in1019.3 mb 0.00 in0.0 mm 0.00 in0.0 mm 0.00 in0.0 mm
01:15 AM 54.0°F12.2°C 46.2°F7.9°C 75% 1.6 mph SW2.6 kmh SW 3.8 mph6.1 kmh 30.09 in1019.0 mb 0.00 in0.0 mm 0.00 in0.0 mm 0.00 in0.0 mm
01:20 AM 53.8°F12.1°C 46.1°F7.8°C 75% 1.6 mph SW2.6 kmh SW 5.4 mph8.7 kmh 30.10 in1019.3 mb 0.00 in0.0 mm 0.00 in0.0 mm 0.00 in0.0 mm
01:25 AM 53.6°F12.0°C 45.9°F7.7°C 75% 1.6 mph WSW2.6 kmh WSW 5.4 mph8.7 kmh 30.09 in1019.0 mb 0.00 in0.0 mm 0.00 in0.0 mm 0.00 in0.0 mm
01:30 AM 53.6°F12.0°C 45.9°F7.7°C 75% 1.6 mph W2.6 kmh W 5.4 mph8.7 kmh 30.10 in1019.3 mb 0.00 in0.0 mm 0.00 in0.0 mm 0.00 in0.0 mm
01:35 AM 53.2°F11.8°C 45.9°F7.7°C 76% 1.6 mph W2.6 kmh W 4.5 mph7.2 kmh 30.09 in1019.0 mb 0.00 in0.0 mm 0.00 in0.0 mm 0.00 in0.0 mm
01:40 AM 52.9°F11.6°C 45.5°F7.5°C 76% 1.6 mph W2.6 kmh W 4.5 mph7.2 kmh 30.10 in1019.3 mb 0.00 in0.0 mm 0.00 in0.0 mm 0.00 in0.0 mm
01:45 AM 52.7°F11.5°C 45.7°F7.6°C 77% 1.6 mph WNW2.6 kmh WNW 3.8 mph6.1 kmh 30.10 in1019.3 mb 0.00 in0.0 mm 0.00 in0.0 mm 0.00 in0.0 mm
01:50 AM 52.3°F11.3°C 45.7°F7.6°C 78% 1.6 mph NW2.6 kmh NW 3.1 mph5.0 kmh 30.09 in1019.0 mb 0.00 in0.0 mm 0.00 in0.0 mm 0.00 in0.0 mm
01:55 AM 52.2°F11.2°C 45.9°F7.7°C 79% 0.7 mph N1.1 kmh N 3.1 mph5.0 kmh 30.10 in1019.3 mb 0.00 in0.0 mm 0.00 in0.0 mm 0.00 in0.0 mm
02:00 AM 52.0°F11.1°C 46.0°F7.8°C 80% 2.2 mph NE3.5 kmh NE 4.5 mph7.2 kmh 30.11 in1019.6 mb 0.00 in0.0 mm 0.00 in0.0 mm 0.00 in0.0 mm
02:05 AM 52.0°F11.1°C 46.3°F7.9°C 81% 4.5 mph E7.2 kmh E 6.0 mph9.7 kmh 30.10 in1019.3 mb 0.00 in0.0 mm 0.00 in0.0 mm 0.00 in0.0 mm
02:10 AM 52.2°F11.2°C 46.8°F8.2°C 82% 2.2 mph E3.5 kmh E 6.0 mph9.7 kmh 30.10 in1019.3 mb 0.00 in0.0 mm 0.00 in0.0 mm 0.00 in0.0 mm
02:15 AM 52.2°F11.2°C 46.8°F8.2°C 82% 0.7 mph ESE1.1 kmh ESE 6.0 mph9.7 kmh 30.10 in1019.3 mb 0.00 in0.0 mm 0.00 in0.0 mm 0.00 in0.0 mm
02:20 AM 52.3°F11.3°C 46.7°F8.2°C 81% 0.7 mph SW1.1 kmh SW 3.8 mph6.1 kmh 30.10 in1019.3 mb 0.00 in0.0 mm 0.00 in0.0 mm 0.00 in0.0 mm
02:25 AM 52.5°F11.4°C 46.5°F8.1°C 80% 0.7 mph WSW1.1 kmh WSW 3.1 mph5.0 kmh 30.10 in1019.3 mb 0.00 in0.0 mm 0.00 in0.0 mm 0.00 in0.0 mm
02:30 AM 52.5°F11.4°C 46.5°F8.1°C 80% Calm Calm 3.1 mph5.0 kmh 30.11 in1019.6 mb 0.00 in0.0 mm 0.00 in0.0 mm 0.00 in0.0 mm
02:35 AM 52.5°F11.4°C 46.5°F8.1°C 80% 0.7 mph NW1.1 kmh NW 3.1 mph5.0 kmh 30.10 in1019.3 mb 0.00 in0.0 mm 0.00 in0.0 mm 0.00 in0.0 mm
02:40 AM 52.5°F11.4°C 46.5°F8.1°C 80% Calm Calm 2.2 mph3.5 kmh 30.10 in1019.3 mb 0.00 in0.0 mm 0.00 in0.0 mm 0.00 in0.0 mm
02:45 AM 52.3°F11.3°C 46.4°F8.0°C 80% 2.2 mph E3.5 kmh E 3.8 mph6.1 kmh 30.09 in1019.0 mb 0.00 in0.0 mm 0.00 in0.0 mm 0.00 in0.0 mm
02:50 AM 52.3°F11.3°C 46.7°F8.2°C 81% 0.7 mph ESE1.1 kmh ESE 3.8 mph6.1 kmh 30.09 in1019.0 mb 0.00 in0.0 mm 0.00 in0.0 mm 0.00 in0.0 mm
02:55 AM 52.2°F11.2°C 46.5°F8.1°C 81% 1.6 mph SW2.6 kmh SW 4.5 mph7.2 kmh 30.09 in1019.0 mb 0.00 in0.0 mm 0.00 in0.0 mm 0.00 in0.0 mm
03:00 AM 52.3°F11.3°C 47.0°F8.3°C 82% 3.1 mph SW5.0 kmh SW 5.4 mph8.7 kmh 30.09 in1019.0 mb 0.00 in0.0 mm 0.00 in0.0 mm 0.00 in0.0 mm
03:05 AM 52.3°F11.3°C 47.0°F8.3°C 82% 3.1 mph WSW5.0 kmh WSW 5.4 mph8.7 kmh 30.09 in1019.0 mb 0.00 in0.0 mm 0.00 in0.0 mm 0.00 in0.0 mm
03:10 AM 52.7°F11.5°C 47.4°F8.6°C 82% 3.8 mph W6.1 kmh W 6.0 mph9.7 kmh 30.09 in1019.0 mb 0.00 in0.0 mm 0.00 in0.0 mm 0.00 in0.0 mm
03:15 AM 52.9°F11.6°C 47.5°F8.6°C 82% 3.8 mph WNW6.1 kmh WNW 6.0 mph9.7 kmh 30.09 in1019.0 mb 0.00 in0.0 mm 0.00 in0.0 mm 0.00 in0.0 mm
03:20 AM 52.9°F11.6°C 47.5°F8.6°C 82% 1.6 mph NW2.6 kmh NW 5.4 mph8.7 kmh 30.09 in1019.0 mb 0.00 in0.0 mm 0.00 in0.0 mm 0.00 in0.0 mm
03:25 AM 52.7°F11.5°C 47.4°F8.6°C 82% 1.6 mph NNW2.6 kmh NNW 5.4 mph8.7 kmh 30.09 in1019.0 mb 0.00 in0.0 mm 0.00 in0.0 mm 0.00 in0.0 mm
03:30 AM 52.7°F11.5°C 47.4°F8.6°C 82% Calm Calm 3.8 mph6.1 kmh 30.09 in1019.0 mb 0.00 in0.0 mm 0.00 in0.0 mm 0.00 in0.0 mm
03:35 AM 52.7°F11.5°C 47.4°F8.6°C 82% 0.7 mph WNW1.1 kmh WNW 3.8 mph6.1 kmh 30.09 in1019.0 mb 0.00 in0.0 mm 0.00 in0.0 mm 0.00 in0.0 mm
03:40 AM 52.7°F11.5°C 47.4°F8.6°C 82% 1.6 mph WNW2.6 kmh WNW 3.1 mph5.0 kmh 30.08 in1018.6 mb 0.00 in0.0 mm 0.00 in0.0 mm 0.00 in0.0 mm
03:45 AM 52.5°F11.4°C 47.2°F8.4°C 82% 3.8 mph WNW6.1 kmh WNW 4.5 mph7.2 kmh 30.09 in1019.0 mb 0.00 in0.0 mm 0.00 in0.0 mm 0.00 in0.0 mm
03:50 AM 52.2°F11.2°C 46.8°F8.2°C 82% 0.7 mph NW1.1 kmh NW 4.5 mph7.2 kmh 30.09 in1019.0 mb 0.00 in0.0 mm 0.00 in0.0 mm 0.00 in0.0 mm
03:55 AM 51.8°F11.0°C 46.5°F8.1°C 82% 0.7 mph WSW1.1 kmh WSW 4.5 mph7.2 kmh 30.08 in1018.6 mb 0.00 in0.0 mm 0.00 in0.0 mm 0.00 in0.0 mm
04:00 AM 51.4°F10.8°C 46.5°F8.1°C 83% 0.7 mph SW1.1 kmh SW 2.2 mph3.5 kmh 30.09 in1019.0 mb 0.00 in0.0 mm 0.00 in0.0 mm 0.00 in0.0 mm
04:05 AM 51.3°F10.7°C 46.3°F7.9°C 83% 1.6 mph W2.6 kmh W 3.1 mph5.0 kmh 30.09 in1019.0 mb 0.00 in0.0 mm 0.00 in0.0 mm 0.00 in0.0 mm
04:10 AM 50.7°F10.4°C 45.8°F7.7°C 83% 2.2 mph NW3.5 kmh NW 3.1 mph5.0 kmh 30.09 in1019.0 mb 0.00 in0.0 mm 0.00 in0.0 mm 0.00 in0.0 mm
04:15 AM 50.4°F10.2°C 45.7°F7.6°C 84% 0.7 mph N1.1 kmh N 3.8 mph6.1 kmh 30.09 in1019.0 mb 0.00 in0.0 mm 0.00 in0.0 mm 0.00 in0.0 mm
04:20 AM 50.0°F10.0°C 45.4°F7.4°C 84% Calm Calm 3.8 mph6.1 kmh 30.09 in1019.0 mb 0.00 in0.0 mm 0.00 in0.0 mm 0.00 in0.0 mm
04:25 AM 49.5°F9.7°C 45.5°F7.5°C 86% 0.7 mph N1.1 kmh N 3.8 mph6.1 kmh 30.09 in1019.0 mb 0.00 in0.0 mm 0.00 in0.0 mm 0.00 in0.0 mm
04:30 AM 49.1°F9.5°C 45.4°F7.4°C 87% 1.6 mph N2.6 kmh N 3.8 mph6.1 kmh 30.09 in1019.0 mb 0.00 in0.0 mm 0.00 in0.0 mm 0.00 in0.0 mm
04:35 AM 48.9°F9.4°C 45.5°F7.5°C 88% 0.7 mph NNW1.1 kmh NNW 2.2 mph3.5 kmh 30.09 in1019.0 mb 0.00 in0.0 mm 0.00 in0.0 mm 0.00 in0.0 mm
04:40 AM 48.9°F9.4°C 45.5°F7.5°C 88% 0.7 mph NW1.1 kmh NW 3.1 mph5.0 kmh 30.09 in1019.0 mb 0.00 in0.0 mm 0.00 in0.0 mm 0.00 in0.0 mm
04:45 AM 48.7°F9.3°C 45.6°F7.6°C 89% 0.7 mph N1.1 kmh N 3.1 mph5.0 kmh 30.09 in1019.0 mb 0.00 in0.0 mm 0.00 in0.0 mm 0.00 in0.0 mm
04:50 AM 48.7°F9.3°C 45.6°F7.6°C 89% Calm Calm 3.8 mph6.1 kmh 30.09 in1019.0 mb 0.00 in0.0 mm 0.00 in0.0 mm 0.00 in0.0 mm
04:55 AM 48.6°F9.2°C 45.5°F7.5°C 89% 0.7 mph N1.1 kmh N 3.8 mph6.1 kmh 30.09 in1019.0 mb 0.00 in0.0 mm 0.00 in0.0 mm 0.00 in0.0 mm
05:00 AM 48.6°F9.2°C 45.8°F7.7°C 90% 1.6 mph N2.6 kmh N 3.1 mph5.0 kmh 30.09 in1019.0 mb 0.00 in0.0 mm 0.00 in0.0 mm 0.00 in0.0 mm
05:05 AM 48.6°F9.2°C 45.8°F7.7°C 90% 1.6 mph NE2.6 kmh NE 3.1 mph5.0 kmh 30.09 in1019.0 mb 0.00 in0.0 mm 0.00 in0.0 mm 0.00 in0.0 mm
05:10 AM 48.4°F9.1°C 45.6°F7.6°C 90% Calm Calm 2.2 mph3.5 kmh 30.09 in1019.0 mb 0.00 in0.0 mm 0.00 in0.0 mm 0.00 in0.0 mm
05:15 AM 48.2°F9.0°C 45.4°F7.4°C 90% 1.6 mph NE2.6 kmh NE 2.2 mph3.5 kmh 30.09 in1019.0 mb 0.00 in0.0 mm 0.00 in0.0 mm 0.00 in0.0 mm
05:20 AM 48.0°F8.9°C 45.5°F7.5°C 91% Calm Calm 2.2 mph3.5 kmh 30.09 in1019.0 mb 0.00 in0.0 mm 0.00 in0.0 mm 0.00 in0.0 mm
05:25 AM 48.0°F8.9°C 45.8°F7.7°C 92% 1.6 mph E2.6 kmh E 2.2 mph3.5 kmh 30.09 in1019.0 mb 0.00 in0.0 mm 0.00 in0.0 mm 0.00 in0.0 mm
05:30 AM 48.0°F8.9°C 45.8°F7.7°C 92% 1.6 mph ENE2.6 kmh ENE 3.1 mph5.0 kmh 30.10 in1019.3 mb 0.00 in0.0 mm 0.00 in0.0 mm 0.00 in0.0 mm
05:35 AM 48.2°F9.0°C 45.7°F7.6°C 91% 2.2 mph ENE3.5 kmh ENE 3.8 mph6.1 kmh 30.10 in1019.3 mb 0.00 in0.0 mm 0.00 in0.0 mm 0.00 in0.0 mm
05:40 AM 48.2°F9.0°C 45.7°F7.6°C 91% Calm Calm 3.8 mph6.1 kmh 30.10 in1019.3 mb 0.00 in0.0 mm 0.00 in0.0 mm 0.00 in0.0 mm
05:45 AM 48.2°F9.0°C 46.0°F7.8°C 92% Calm Calm 3.8 mph6.1 kmh 30.10 in1019.3 mb 0.00 in0.0 mm 0.00 in0.0 mm 0.00 in0.0 mm
05:50 AM 48.4°F9.1°C 46.2°F7.9°C 92% Calm Calm 2.2 mph3.5 kmh 30.10 in1019.3 mb 0.00 in0.0 mm 0.00 in0.0 mm 0.00 in0.0 mm
05:55 AM 48.4°F9.1°C 46.2°F7.9°C 92% 2.2 mph NNE3.5 kmh NNE 3.8 mph6.1 kmh 30.10 in1019.3 mb 0.00 in0.0 mm 0.00 in0.0 mm 0.00 in0.0 mm
06:00 AM 48.4°F9.1°C 46.2°F7.9°C 92% Calm Calm 3.8 mph6.1 kmh 30.11 in1019.6 mb 0.00 in0.0 mm 0.00 in0.0 mm 0.00 in0.0 mm
06:05 AM 48.4°F9.1°C 45.9°F7.7°C 91% 0.7 mph N1.1 kmh N 3.8 mph6.1 kmh 30.10 in1019.3 mb 0.00 in0.0 mm 0.00 in0.0 mm 0.00 in0.0 mm
06:10 AM 48.2°F9.0°C 45.7°F7.6°C 91% 0.7 mph NNE1.1 kmh NNE 3.8 mph6.1 kmh 30.11 in1019.6 mb 0.00 in0.0 mm 0.00 in0.0 mm 0.00 in0.0 mm
06:15 AM 48.0°F8.9°C 45.8°F7.7°C 92% 1.6 mph NE2.6 kmh NE 4.5 mph7.2 kmh 30.10 in1019.3 mb 0.00 in0.0 mm 0.00 in0.0 mm 0.00 in0.0 mm
06:20 AM 47.8°F8.8°C 45.6°F7.6°C 92% Calm Calm 4.5 mph7.2 kmh 30.10 in1019.3 mb 0.00 in0.0 mm 0.00 in0.0 mm 0.00 in0.0 mm
06:25 AM 47.8°F8.8°C 45.6°F7.6°C 92% 1.6 mph ESE2.6 kmh ESE 3.8 mph6.1 kmh 30.10 in1019.3 mb 0.00 in0.0 mm 0.00 in0.0 mm 0.00 in0.0 mm
06:30 AM 47.8°F8.8°C 45.6°F7.6°C 92% 1.6 mph E2.6 kmh E 3.1 mph5.0 kmh 30.11 in1019.6 mb 0.00 in0.0 mm 0.00 in0.0 mm 0.00 in0.0 mm
06:35 AM 47.7°F8.7°C 45.5°F7.5°C 92% 2.2 mph S3.5 kmh S 4.5 mph7.2 kmh 30.11 in1019.6 mb 0.00 in0.0 mm 0.00 in0.0 mm 0.00 in0.0 mm
06:40 AM 47.5°F8.6°C 45.3°F7.4°C 92% 0.7 mph NW1.1 kmh NW 4.5 mph7.2 kmh 30.11 in1019.6 mb 0.00 in0.0 mm 0.00 in0.0 mm 0.00 in0.0 mm
06:45 AM 47.3°F8.5°C 45.1°F7.3°C 92% Calm Calm 3.8 mph6.1 kmh 30.11 in1019.6 mb 0.00 in0.0 mm 0.00 in0.0 mm 0.00 in0.0 mm
06:50 AM 47.1°F8.4°C 44.9°F7.2°C 92% 0.7 mph NW1.1 kmh NW 3.1 mph5.0 kmh 30.11 in1019.6 mb 0.00 in0.0 mm 0.00 in0.0 mm 0.00 in0.0 mm
06:55 AM 46.8°F8.2°C 44.6°F7.0°C 92% 1.6 mph NW2.6 kmh NW 3.1 mph5.0 kmh 30.11 in1019.6 mb 0.00 in0.0 mm 0.00 in0.0 mm 0.00 in0.0 mm
07:00 AM 46.4°F8.0°C 44.2°F6.8°C 92% 0.7 mph NNW1.1 kmh NNW 3.8 mph6.1 kmh 30.11 in1019.6 mb 0.00 in0.0 mm 0.00 in0.0 mm 0.00 in0.0 mm
07:05 AM 46.4°F8.0°C 44.2°F6.8°C 92% 0.7 mph W1.1 kmh W 3.8 mph6.1 kmh 30.11 in1019.6 mb 0.00 in0.0 mm 0.00 in0.0 mm 0.00 in0.0 mm
07:10 AM 46.4°F8.0°C 44.5°F6.9°C 93% Calm Calm 2.2 mph3.5 kmh 30.11 in1019.6 mb 0.00 in0.0 mm 0.00 in0.0 mm 0.00 in0.0 mm
07:15 AM 46.2°F7.9°C 44.6°F7.0°C 94% 0.7 mph SW1.1 kmh SW 2.2 mph3.5 kmh 30.12 in1020.0 mb 0.00 in0.0 mm 0.00 in0.0 mm 0.00 in0.0 mm
07:20 AM 46.4°F8.0°C 44.8°F7.1°C 94% 1.6 mph WSW2.6 kmh WSW 2.2 mph3.5 kmh 30.12 in1020.0 mb 0.00 in0.0 mm 0.00 in0.0 mm 0.00 in0.0 mm
07:25 AM 46.4°F8.0°C 44.8°F7.1°C 94% 1.6 mph WNW2.6 kmh WNW 2.2 mph3.5 kmh 30.12 in1020.0 mb 0.00 in0.0 mm 0.00 in0.0 mm 0.00 in0.0 mm
07:30 AM 46.6°F8.1°C 44.9°F7.2°C 94% 0.7 mph NW1.1 kmh NW 2.2 mph3.5 kmh 30.12 in1020.0 mb 0.00 in0.0 mm 0.00 in0.0 mm 0.00 in0.0 mm
07:35 AM 46.6°F8.1°C 45.2°F7.3°C 95% Calm Calm 2.2 mph3.5 kmh 30.12 in1020.0 mb 0.00 in0.0 mm 0.00 in0.0 mm 0.00 in0.0 mm
07:40 AM 46.8°F8.2°C 45.4°F7.4°C 95% 1.6 mph NW2.6 kmh NW 3.1 mph5.0 kmh 30.12 in1020.0 mb 0.00 in0.0 mm 0.00 in0.0 mm 0.00 in0.0 mm
07:45 AM 46.6°F8.1°C 45.2°F7.3°C 95% Calm Calm 3.1 mph5.0 kmh 30.13 in1020.3 mb 0.00 in0.0 mm 0.00 in0.0 mm 0.00 in0.0 mm
07:50 AM 46.8°F8.2°C 45.4°F7.4°C 95% 0.7 mph N1.1 kmh N 3.1 mph5.0 kmh 30.13 in1020.3 mb 0.00 in0.0 mm 0.00 in0.0 mm 0.00 in0.0 mm
07:55 AM 46.9°F8.3°C 45.6°F7.6°C 95% 0.7 mph NNE1.1 kmh NNE 1.6 mph2.6 kmh 30.13 in1020.3 mb 0.00 in0.0 mm 0.00 in0.0 mm 0.00 in0.0 mm
08:00 AM 47.1°F8.4°C 45.8°F7.7°C 95% 1.6 mph NNE2.6 kmh NNE 2.2 mph3.5 kmh 30.13 in1020.3 mb 0.00 in0.0 mm 0.00 in0.0 mm 0.00 in0.0 mm
08:05 AM 47.7°F8.7°C 46.3°F7.9°C 95% 0.7 mph NW1.1 kmh NW 2.2 mph3.5 kmh 30.13 in1020.3 mb 0.00 in0.0 mm 0.00 in0.0 mm 0.00 in0.0 mm
08:10 AM 48.6°F9.2°C 46.9°F8.3°C 94% 1.6 mph NNW2.6 kmh NNW 2.2 mph3.5 kmh 30.13 in1020.3 mb 0.00 in0.0 mm 0.00 in0.0 mm 0.00 in0.0 mm
08:15 AM 49.6°F9.8°C 48.0°F8.9°C 94% 0.7 mph NNW1.1 kmh NNW 2.2 mph3.5 kmh 30.14 in1020.7 mb 0.00 in0.0 mm 0.00 in0.0 mm 0.00 in0.0 mm
08:20 AM 51.1°F10.6°C 48.8°F9.3°C 92% 3.1 mph WNW5.0 kmh WNW 5.4 mph8.7 kmh 30.14 in1020.7 mb 0.00 in0.0 mm 0.00 in0.0 mm 0.00 in0.0 mm
08:25 AM 52.5°F11.4°C 49.4°F9.7°C 89% 2.2 mph W3.5 kmh W 5.4 mph8.7 kmh 30.14 in1020.7 mb 0.00 in0.0 mm 0.00 in0.0 mm 0.00 in0.0 mm
08:30 AM 53.2°F11.8°C 49.2°F9.6°C 86% 3.8 mph WSW6.1 kmh WSW 6.0 mph9.7 kmh 30.13 in1020.3 mb 0.00 in0.0 mm 0.00 in0.0 mm 0.00 in0.0 mm
08:35 AM 53.6°F12.0°C 48.2°F9.0°C 82% 0.7 mph WSW1.1 kmh WSW 6.0 mph9.7 kmh 30.13 in1020.3 mb 0.00 in0.0 mm 0.00 in0.0 mm 0.00 in0.0 mm
08:40 AM 54.0°F12.2°C 47.9°F8.8°C 80% 2.2 mph WSW3.5 kmh WSW 6.0 mph9.7 kmh 30.13 in1020.3 mb 0.00 in0.0 mm 0.00 in0.0 mm 0.00 in0.0 mm
08:45 AM 54.1°F12.3°C 47.4°F8.6°C 78% 1.6 mph W2.6 kmh W 6.0 mph9.7 kmh 30.14 in1020.7 mb 0.00 in0.0 mm 0.00 in0.0 mm 0.00 in0.0 mm
08:50 AM 54.3°F12.4°C 47.3°F8.5°C 77% 0.7 mph WNW1.1 kmh WNW 6.0 mph9.7 kmh 30.14 in1020.7 mb 0.00 in0.0 mm 0.00 in0.0 mm 0.00 in0.0 mm
08:55 AM 55.2°F12.9°C 48.1°F8.9°C 77% 0.7 mph W1.1 kmh W 6.0 mph9.7 kmh 30.14 in1020.7 mb 0.00 in0.0 mm 0.00 in0.0 mm 0.00 in0.0 mm
09:00 AM 56.7°F13.7°C 48.8°F9.3°C 75% 2.2 mph SW3.5 kmh SW 6.9 mph11.1 kmh 30.14 in1020.7 mb 0.00 in0.0 mm 0.00 in0.0 mm 0.00 in0.0 mm
09:05 AM 56.7°F13.7°C 48.8°F9.3°C 75% 2.2 mph SW3.5 kmh SW 6.9 mph11.1 kmh 30.14 in1020.7 mb 0.00 in0.0 mm 0.00 in0.0 mm 0.00 in0.0 mm
09:10 AM 58.3°F14.6°C 48.2°F9.0°C 69% 3.1 mph WSW5.0 kmh WSW 6.0 mph9.7 kmh 30.14 in1020.7 mb 0.00 in0.0 mm 0.00 in0.0 mm 0.00 in0.0 mm
09:15 AM 58.8°F14.9°C 48.3°F9.1°C 68% 3.1 mph WNW5.0 kmh WNW 6.0 mph9.7 kmh 30.14 in1020.7 mb 0.00 in0.0 mm 0.00 in0.0 mm 0.00 in0.0 mm
09:20 AM 58.6°F14.8°C 47.3°F8.5°C 66% 0.7 mph NW1.1 kmh NW 6.0 mph9.7 kmh 30.14 in1020.7 mb 0.00 in0.0 mm 0.00 in0.0 mm 0.00 in0.0 mm
09:25 AM 58.6°F14.8°C 47.3°F8.5°C 66% 0.7 mph WNW1.1 kmh WNW 4.5 mph7.2 kmh 30.14 in1020.7 mb 0.00 in0.0 mm 0.00 in0.0 mm 0.00 in0.0 mm
09:30 AM 59.2°F15.1°C 47.0°F8.3°C 64% 1.6 mph WSW2.6 kmh WSW 3.1 mph5.0 kmh 30.15 in1021.0 mb 0.00 in0.0 mm 0.00 in0.0 mm 0.00 in0.0 mm
09:35 AM 59.5°F15.3°C 47.4°F8.6°C 64% 0.7 mph WNW1.1 kmh WNW 3.1 mph5.0 kmh 30.14 in1020.7 mb 0.00 in0.0 mm 0.00 in0.0 mm 0.00 in0.0 mm
09:40 AM 60.6°F15.9°C 48.0°F8.9°C 63% 3.1 mph NW5.0 kmh NW 3.8 mph6.1 kmh 30.14 in1020.7 mb 0.00 in0.0 mm 0.00 in0.0 mm 0.00 in0.0 mm
09:45 AM 61.7°F16.5°C 47.2°F8.4°C 59% 3.1 mph SW5.0 kmh SW 3.8 mph6.1 kmh 30.14 in1020.7 mb 0.00 in0.0 mm 0.00 in0.0 mm 0.00 in0.0 mm
09:50 AM 62.4°F16.9°C 46.1°F7.8°C 55% 0.7 mph S1.1 kmh S 3.8 mph6.1 kmh 30.14 in1020.7 mb 0.00 in0.0 mm 0.00 in0.0 mm 0.00 in0.0 mm
09:55 AM 62.8°F17.1°C 44.9°F7.2°C 52% 5.4 mph NNW8.7 kmh NNW 9.8 mph15.8 kmh 30.15 in1021.0 mb 0.00 in0.0 mm 0.00 in0.0 mm 0.00 in0.0 mm
10:00 AM 62.6°F17.0°C 44.2°F6.8°C 51% 1.6 mph N2.6 kmh N 9.8 mph15.8 kmh 30.15 in1021.0 mb 0.00 in0.0 mm 0.00 in0.0 mm 0.00 in0.0 mm
10:05 AM 62.8°F17.1°C 43.9°F6.6°C 50% 3.1 mph WNW5.0 kmh WNW 6.0 mph9.7 kmh 30.15 in1021.0 mb 0.00 in0.0 mm 0.00 in0.0 mm 0.00 in0.0 mm
10:10 AM 62.2°F16.8°C 42.9°F6.1°C 49% 3.8 mph NW6.1 kmh NW 7.6 mph12.2 kmh 30.15 in1021.0 mb 0.00 in0.0 mm 0.00 in0.0 mm 0.00 in0.0 mm
10:15 AM 61.9°F16.6°C 44.1°F6.7°C 52% 0.7 mph NNW1.1 kmh NNW 7.6 mph12.2 kmh 30.15 in1021.0 mb 0.00 in0.0 mm 0.00 in0.0 mm 0.00 in0.0 mm
10:20 AM 61.9°F16.6°C 44.1°F6.7°C 52% 5.4 mph NNW8.7 kmh NNW 6.9 mph11.1 kmh 30.15 in1021.0 mb 0.00 in0.0 mm 0.00 in0.0 mm 0.00 in0.0 mm
10:25 AM 61.9°F16.6°C 44.1°F6.7°C 52% 6.9 mph NW11.1 kmh NW 10.7 mph17.2 kmh 30.16 in1021.3 mb 0.00 in0.0 mm 0.00 in0.0 mm 0.00 in0.0 mm
10:30 AM 61.3°F16.3°C 43.6°F6.4°C 52% 10.7 mph NNW17.2 kmh NNW 14.5 mph23.3 kmh 30.16 in1021.3 mb 0.00 in0.0 mm 0.00 in0.0 mm 0.00 in0.0 mm
10:35 AM 60.6°F15.9°C 43.4°F6.3°C 53% 7.6 mph NNW12.2 kmh NNW 14.5 mph23.3 kmh 30.16 in1021.3 mb 0.00 in0.0 mm 0.00 in0.0 mm 0.00 in0.0 mm
10:40 AM 60.4°F15.8°C 43.2°F6.2°C 53% 6.0 mph NW9.7 kmh NW 12.1 mph19.5 kmh 30.16 in1021.3 mb 0.00 in0.0 mm 0.00 in0.0 mm 0.00 in0.0 mm
10:45 AM 60.4°F15.8°C 43.2°F6.2°C 53% 9.8 mph NW15.8 kmh NW 13.6 mph21.9 kmh 30.16 in1021.3 mb 0.00 in0.0 mm 0.00 in0.0 mm 0.00 in0.0 mm
10:50 AM 60.4°F15.8°C 43.2°F6.2°C 53% 6.0 mph NNW9.7 kmh NNW 13.6 mph21.9 kmh 30.16 in1021.3 mb 0.00 in0.0 mm 0.00 in0.0 mm 0.00 in0.0 mm
10:55 AM 61.3°F16.3°C 43.6°F6.4°C 52% 6.0 mph NNW9.7 kmh NNW 13.6 mph21.9 kmh 30.16 in1021.3 mb 0.00 in0.0 mm 0.00 in0.0 mm 0.00 in0.0 mm
11:00 AM 62.6°F17.0°C 44.2°F6.8°C 51% 9.2 mph NW14.8 kmh NW 13.6 mph21.9 kmh 30.16 in1021.3 mb 0.00 in0.0 mm 0.00 in0.0 mm 0.00 in0.0 mm
11:05 AM 62.6°F17.0°C 44.2°F6.8°C 51% 9.2 mph WNW14.8 kmh WNW 13.6 mph21.9 kmh 30.16 in1021.3 mb 0.00 in0.0 mm 0.00 in0.0 mm 0.00 in0.0 mm
11:10 AM 64.0°F17.8°C 43.4°F6.3°C 47% 3.1 mph WNW5.0 kmh WNW 11.4 mph18.3 kmh 30.16 in1021.3 mb 0.00 in0.0 mm 0.00 in0.0 mm 0.00 in0.0 mm
11:15 AM 64.2°F17.9°C 42.5°F5.8°C 45% 5.4 mph NW8.7 kmh NW 11.4 mph18.3 kmh 30.16 in1021.3 mb 0.00 in0.0 mm 0.00 in0.0 mm 0.00 in0.0 mm
11:20 AM 64.8°F18.2°C 43.5°F6.4°C 46% 6.0 mph NW9.7 kmh NW 11.4 mph18.3 kmh 30.16 in1021.3 mb 0.00 in0.0 mm 0.00 in0.0 mm 0.00 in0.0 mm
11:25 AM 65.3°F18.5°C 43.4°F6.3°C 45% 3.8 mph NW6.1 kmh NW 11.4 mph18.3 kmh 30.16 in1021.3 mb 0.00 in0.0 mm 0.00 in0.0 mm 0.00 in0.0 mm
11:30 AM 65.3°F18.5°C 42.8°F6.0°C 44% 7.6 mph NW12.2 kmh NW 11.4 mph18.3 kmh 30.16 in1021.3 mb 0.00 in0.0 mm 0.00 in0.0 mm 0.00 in0.0 mm
11:35 AM 64.9°F18.3°C 42.5°F5.8°C 44% 11.4 mph NW18.3 kmh NW 13.0 mph20.9 kmh 30.16 in1021.3 mb 0.00 in0.0 mm 0.00 in0.0 mm 0.00 in0.0 mm
11:40 AM 64.6°F18.1°C 42.2°F5.7°C 44% 4.5 mph NNW7.2 kmh NNW 13.0 mph20.9 kmh 30.15 in1021.0 mb 0.00 in0.0 mm 0.00 in0.0 mm 0.00 in0.0 mm
11:50 AM 65.5°F18.6°C 43.6°F6.4°C 45% 3.8 mph NNW6.1 kmh NNW 11.4 mph18.3 kmh 30.16 in1021.3 mb 0.00 in0.0 mm 0.00 in0.0 mm 0.00 in0.0 mm
11:55 AM 66.2°F19.0°C 43.1°F6.2°C 43% 2.2 mph NNW3.5 kmh NNW 9.8 mph15.8 kmh 30.15 in1021.0 mb 0.00 in0.0 mm 0.00 in0.0 mm 0.00 in0.0 mm
12:00 PM 66.4°F19.1°C 42.6°F5.9°C 42% 3.8 mph N6.1 kmh N 10.7 mph17.2 kmh 30.16 in1021.3 mb 0.00 in0.0 mm 0.00 in0.0 mm 0.00 in0.0 mm
12:05 PM 66.7°F19.3°C 42.9°F6.1°C 42% 3.8 mph N6.1 kmh N 10.7 mph17.2 kmh 30.15 in1021.0 mb 0.00 in0.0 mm 0.00 in0.0 mm 0.00 in0.0 mm
12:10 PM 66.6°F19.2°C 42.8°F6.0°C 42% 4.5 mph N7.2 kmh N 8.3 mph13.4 kmh 30.16 in1021.3 mb 0.00 in0.0 mm 0.00 in0.0 mm 0.00 in0.0 mm
12:15 PM 66.4°F19.1°C 43.2°F6.2°C 43% 14.5 mph N23.3 kmh N 18.3 mph29.5 kmh 30.16 in1021.3 mb 0.00 in0.0 mm 0.00 in0.0 mm 0.00 in0.0 mm
12:20 PM 66.0°F18.9°C 43.5°F6.4°C 44% 7.6 mph N12.2 kmh N 18.3 mph29.5 kmh 30.16 in1021.3 mb 0.00 in0.0 mm 0.00 in0.0 mm 0.00 in0.0 mm
12:25 PM 66.0°F18.9°C 44.1°F6.7°C 45% 12.1 mph NNW19.5 kmh NNW 15.2 mph24.5 kmh 30.16 in1021.3 mb 0.00 in0.0 mm 0.00 in0.0 mm 0.00 in0.0 mm
12:30 PM 66.6°F19.2°C 44.6°F7.0°C 45% 9.8 mph NW15.8 kmh NW 15.2 mph24.5 kmh 30.16 in1021.3 mb 0.00 in0.0 mm 0.00 in0.0 mm 0.00 in0.0 mm
12:35 PM 66.6°F19.2°C 44.0°F6.7°C 44% 10.7 mph NW17.2 kmh NW 15.9 mph25.6 kmh 30.16 in1021.3 mb 0.00 in0.0 mm 0.00 in0.0 mm 0.00 in0.0 mm
12:40 PM 66.9°F19.4°C 44.9°F7.2°C 45% 9.2 mph NW14.8 kmh NW 17.4 mph28.0 kmh 30.16 in1021.3 mb 0.00 in0.0 mm 0.00 in0.0 mm 0.00 in0.0 mm
12:45 PM 66.6°F19.2°C 44.6°F7.0°C 45% 8.3 mph NW13.4 kmh NW 17.4 mph28.0 kmh 30.16 in1021.3 mb 0.00 in0.0 mm 0.00 in0.0 mm 0.00 in0.0 mm
12:50 PM 66.7°F19.3°C 45.3°F7.4°C 46% 5.4 mph NW8.7 kmh NW 17.4 mph28.0 kmh 30.16 in1021.3 mb 0.00 in0.0 mm 0.00 in0.0 mm 0.00 in0.0 mm
12:55 PM 67.1°F19.5°C 45.1°F7.3°C 45% 6.0 mph NNW9.7 kmh NNW 17.4 mph28.0 kmh 30.16 in1021.3 mb 0.00 in0.0 mm 0.00 in0.0 mm 0.00 in0.0 mm
01:00 PM 68.0°F20.0°C 45.9°F7.7°C 45% 9.2 mph NNW14.8 kmh NNW 15.9 mph25.6 kmh 30.16 in1021.3 mb 0.00 in0.0 mm 0.00 in0.0 mm 0.00 in0.0 mm
01:05 PM 68.0°F20.0°C 45.9°F7.7°C 45% 9.2 mph NW14.8 kmh NW 13.6 mph21.9 kmh 30.16 in1021.3 mb 0.00 in0.0 mm 0.00 in0.0 mm 0.00 in0.0 mm
01:10 PM 69.3°F20.7°C 47.0°F8.3°C 45% 6.9 mph NW11.1 kmh NW 13.6 mph21.9 kmh 30.16 in1021.3 mb 0.00 in0.0 mm 0.00 in0.0 mm 0.00 in0.0 mm
01:15 PM 69.1°F20.6°C 45.7°F7.6°C 43% 6.0 mph NNW9.7 kmh NNW 13.6 mph21.9 kmh 30.16 in1021.3 mb 0.00 in0.0 mm 0.00 in0.0 mm 0.00 in0.0 mm
01:20 PM 68.7°F20.4°C 45.9°F7.7°C 44% 6.0 mph NNW9.7 kmh NNW 13.0 mph20.9 kmh 30.16 in1021.3 mb 0.00 in0.0 mm 0.00 in0.0 mm 0.00 in0.0 mm
01:25 PM 68.5°F20.3°C 46.4°F8.0°C 45% 6.9 mph NW11.1 kmh NW 12.1 mph19.5 kmh 30.16 in1021.3 mb 0.00 in0.0 mm 0.00 in0.0 mm 0.00 in0.0 mm
01:30 PM 68.4°F20.2°C 45.6°F7.6°C 44% 9.8 mph NW15.8 kmh NW 15.9 mph25.6 kmh 30.16 in1021.3 mb 0.00 in0.0 mm 0.00 in0.0 mm 0.00 in0.0 mm
01:35 PM 68.4°F20.2°C 46.2°F7.9°C 45% 7.6 mph NNW12.2 kmh NNW 15.9 mph25.6 kmh 30.16 in1021.3 mb 0.00 in0.0 mm 0.00 in0.0 mm 0.00 in0.0 mm
01:40 PM 69.3°F20.7°C 47.6°F8.7°C 46% 7.6 mph N12.2 kmh N 13.6 mph21.9 kmh 30.16 in1021.3 mb 0.00 in0.0 mm 0.00 in0.0 mm 0.00 in0.0 mm
01:45 PM 69.4°F20.8°C 46.6°F8.1°C 44% 8.3 mph N13.4 kmh N 13.6 mph21.9 kmh 30.16 in1021.3 mb 0.00 in0.0 mm 0.00 in0.0 mm 0.00 in0.0 mm
01:50 PM 69.4°F20.8°C 46.0°F7.8°C 43% 3.8 mph NNW6.1 kmh NNW 18.3 mph29.5 kmh 30.16 in1021.3 mb 0.00 in0.0 mm 0.00 in0.0 mm 0.00 in0.0 mm
01:55 PM 70.2°F21.2°C 46.6°F8.1°C 43% 6.0 mph NNW9.7 kmh NNW 18.3 mph29.5 kmh 30.16 in1021.3 mb 0.00 in0.0 mm 0.00 in0.0 mm 0.00 in0.0 mm
02:00 PM 70.5°F21.4°C 45.7°F7.6°C 41% 6.9 mph NNE11.1 kmh NNE 15.9 mph25.6 kmh 30.15 in1021.0 mb 0.00 in0.0 mm 0.00 in0.0 mm 0.00 in0.0 mm
02:05 PM 70.5°F21.4°C 45.7°F7.6°C 41% 7.6 mph NNE12.2 kmh NNE 15.9 mph25.6 kmh 30.15 in1021.0 mb 0.00 in0.0 mm 0.00 in0.0 mm 0.00 in0.0 mm
02:10 PM 70.5°F21.4°C 45.7°F7.6°C 41% 7.6 mph NNW12.2 kmh NNW 23.5 mph37.8 kmh 30.15 in1021.0 mb 0.00 in0.0 mm 0.00 in0.0 mm 0.00 in0.0 mm
02:15 PM 70.3°F21.3°C 46.2°F7.9°C 42% 9.8 mph NW15.8 kmh NW 23.5 mph37.8 kmh 30.16 in1021.3 mb 0.00 in0.0 mm 0.00 in0.0 mm 0.00 in0.0 mm
02:20 PM 69.3°F20.7°C 45.2°F7.3°C 42% 15.2 mph N24.5 kmh N 19.0 mph30.6 kmh 30.16 in1021.3 mb 0.00 in0.0 mm 0.00 in0.0 mm 0.00 in0.0 mm
02:25 PM 68.9°F20.5°C 46.1°F7.8°C 44% 9.8 mph N15.8 kmh N 19.7 mph31.7 kmh 30.16 in1021.3 mb 0.00 in0.0 mm 0.00 in0.0 mm 0.00 in0.0 mm
02:30 PM 68.7°F20.4°C 45.9°F7.7°C 44% 13.0 mph N20.9 kmh N 19.7 mph31.7 kmh 30.16 in1021.3 mb 0.00 in0.0 mm 0.00 in0.0 mm 0.00 in0.0 mm
02:35 PM 68.2°F20.1°C 45.5°F7.5°C 44% 10.7 mph N17.2 kmh N 18.3 mph29.5 kmh 30.16 in1021.3 mb 0.00 in0.0 mm 0.00 in0.0 mm 0.00 in0.0 mm
02:40 PM 67.5°F19.7°C 46.0°F7.8°C 46% 8.3 mph N13.4 kmh N 19.0 mph30.6 kmh 30.16 in1021.3 mb 0.00 in0.0 mm 0.00 in0.0 mm 0.00 in0.0 mm
02:45 PM 66.9°F19.4°C 46.1°F7.8°C 47% 10.7 mph NNE17.2 kmh NNE 19.0 mph30.6 kmh 30.15 in1021.0 mb 0.00 in0.0 mm 0.00 in0.0 mm 0.00 in0.0 mm
02:50 PM 66.9°F19.4°C 46.6°F8.1°C 48% 5.4 mph NNE8.7 kmh NNE 13.0 mph20.9 kmh 30.15 in1021.0 mb 0.00 in0.0 mm 0.00 in0.0 mm 0.00 in0.0 mm
02:55 PM 67.3°F19.6°C 46.9°F8.3°C 48% 4.5 mph N7.2 kmh N 15.2 mph24.5 kmh 30.16 in1021.3 mb 0.00 in0.0 mm 0.00 in0.0 mm 0.00 in0.0 mm
03:00 PM 67.6°F19.8°C 46.7°F8.2°C 47% 7.6 mph NW12.2 kmh NW 15.9 mph25.6 kmh 30.16 in1021.3 mb 0.00 in0.0 mm 0.00 in0.0 mm 0.00 in0.0 mm
03:05 PM 67.6°F19.8°C 46.7°F8.2°C 47% 7.6 mph NNW12.2 kmh NNW 15.9 mph25.6 kmh 30.15 in1021.0 mb 0.00 in0.0 mm 0.00 in0.0 mm 0.00 in0.0 mm
03:10 PM 67.8°F19.9°C 47.4°F8.6°C 48% 6.0 mph NNW9.7 kmh NNW 14.5 mph23.3 kmh 30.15 in1021.0 mb 0.00 in0.0 mm 0.00 in0.0 mm 0.00 in0.0 mm
03:15 PM 67.6°F19.8°C 47.3°F8.5°C 48% 4.5 mph NW7.2 kmh NW 14.5 mph23.3 kmh 30.15 in1021.0 mb 0.00 in0.0 mm 0.00 in0.0 mm 0.00 in0.0 mm
03:20 PM 67.3°F19.6°C 47.5°F8.6°C 49% 9.2 mph NNW14.8 kmh NNW 14.5 mph23.3 kmh 30.15 in1021.0 mb 0.00 in0.0 mm 0.00 in0.0 mm 0.00 in0.0 mm
03:25 PM 66.6°F19.2°C 46.3°F7.9°C 48% 6.9 mph NNE11.1 kmh NNE 17.4 mph28.0 kmh 30.15 in1021.0 mb 0.00 in0.0 mm 0.00 in0.0 mm 0.00 in0.0 mm
03:30 PM 66.2°F19.0°C 47.0°F8.3°C 50% 7.6 mph NNE12.2 kmh NNE 17.4 mph28.0 kmh 30.15 in1021.0 mb 0.00 in0.0 mm 0.00 in0.0 mm 0.00 in0.0 mm
03:35 PM 66.4°F19.1°C 48.2°F9.0°C 52% 5.4 mph NNE8.7 kmh NNE 16.8 mph27.0 kmh 30.16 in1021.3 mb 0.00 in0.0 mm 0.00 in0.0 mm 0.00 in0.0 mm
03:40 PM 66.6°F19.2°C 47.9°F8.8°C 51% 5.4 mph N8.7 kmh N 12.1 mph19.5 kmh 30.16 in1021.3 mb 0.00 in0.0 mm 0.00 in0.0 mm 0.00 in0.0 mm
03:45 PM 66.4°F19.1°C 47.7°F8.7°C 51% 5.4 mph N8.7 kmh N 13.0 mph20.9 kmh 30.16 in1021.3 mb 0.00 in0.0 mm 0.00 in0.0 mm 0.00 in0.0 mm
03:50 PM 66.2°F19.0°C 48.1°F8.9°C 52% 5.4 mph N8.7 kmh N 13.0 mph20.9 kmh 30.16 in1021.3 mb 0.00 in0.0 mm 0.00 in0.0 mm 0.00 in0.0 mm
03:55 PM 67.3°F19.6°C 49.1°F9.5°C 52% 7.6 mph N12.2 kmh N 13.0 mph20.9 kmh 30.16 in1021.3 mb 0.00 in0.0 mm 0.00 in0.0 mm 0.00 in0.0 mm
04:00 PM 68.4°F20.2°C 49.6°F9.8°C 51% 6.0 mph NNE9.7 kmh NNE 13.6 mph21.9 kmh 30.15 in1021.0 mb 0.00 in0.0 mm 0.00 in0.0 mm 0.00 in0.0 mm
04:05 PM 68.9°F20.5°C 49.5°F9.7°C 50% 6.9 mph N11.1 kmh N 13.6 mph21.9 kmh 30.15 in1021.0 mb 0.00 in0.0 mm 0.00 in0.0 mm 0.00 in0.0 mm
04:10 PM 69.3°F20.7°C 48.2°F9.0°C 47% 10.7 mph N17.2 kmh N 13.6 mph21.9 kmh 30.15 in1021.0 mb 0.00 in0.0 mm 0.00 in0.0 mm 0.00 in0.0 mm
04:15 PM 68.9°F20.5°C 48.4°F9.1°C 48% 9.2 mph N14.8 kmh N 15.2 mph24.5 kmh 30.15 in1021.0 mb 0.00 in0.0 mm 0.00 in0.0 mm 0.00 in0.0 mm
04:20 PM 68.9°F20.5°C 47.3°F8.5°C 46% 6.0 mph N9.7 kmh N 19.7 mph31.7 kmh 30.15 in1021.0 mb 0.00 in0.0 mm 0.00 in0.0 mm 0.00 in0.0 mm
04:25 PM 69.1°F20.6°C 47.5°F8.6°C 46% 9.2 mph N14.8 kmh N 19.7 mph31.7 kmh 30.16 in1021.3 mb 0.00 in0.0 mm 0.00 in0.0 mm 0.00 in0.0 mm
04:30 PM 69.3°F20.7°C 47.6°F8.7°C 46% 12.1 mph NNW19.5 kmh NNW 19.7 mph31.7 kmh 30.16 in1021.3 mb 0.00 in0.0 mm 0.00 in0.0 mm 0.00 in0.0 mm
04:35 PM 69.3°F20.7°C 47.6°F8.7°C 46% 17.4 mph N28.0 kmh N 24.4 mph39.3 kmh 30.16 in1021.3 mb 0.00 in0.0 mm 0.00 in0.0 mm 0.00 in0.0 mm
04:40 PM 68.9°F20.5°C 47.3°F8.5°C 46% 5.4 mph N8.7 kmh N 24.4 mph39.3 kmh 30.16 in1021.3 mb 0.00 in0.0 mm 0.00 in0.0 mm 0.00 in0.0 mm
04:45 PM 68.5°F20.3°C 47.5°F8.6°C 47% 10.7 mph N17.2 kmh N 22.1 mph35.6 kmh 30.16 in1021.3 mb 0.00 in0.0 mm 0.00 in0.0 mm 0.00 in0.0 mm
04:50 PM 68.7°F20.4°C 47.7°F8.7°C 47% 14.5 mph N23.3 kmh N 22.1 mph35.6 kmh 30.16 in1021.3 mb 0.00 in0.0 mm 0.00 in0.0 mm 0.00 in0.0 mm
04:55 PM 68.7°F20.4°C 46.5°F8.1°C 45% 13.0 mph N20.9 kmh N 21.3 mph34.3 kmh 30.16 in1021.3 mb 0.00 in0.0 mm 0.00 in0.0 mm 0.00 in0.0 mm
05:00 PM 68.5°F20.3°C 46.4°F8.0°C 45% 9.8 mph N15.8 kmh N 21.3 mph34.3 kmh 30.16 in1021.3 mb 0.00 in0.0 mm 0.00 in0.0 mm 0.00 in0.0 mm
05:05 PM 68.5°F20.3°C 46.4°F8.0°C 45% 9.8 mph N15.8 kmh N 20.6 mph33.2 kmh 30.16 in1021.3 mb 0.00 in0.0 mm 0.00 in0.0 mm 0.00 in0.0 mm
05:10 PM 68.4°F20.2°C 46.8°F8.2°C 46% 13.6 mph N21.9 kmh N 22.1 mph35.6 kmh 30.16 in1021.3 mb 0.00 in0.0 mm 0.00 in0.0 mm 0.00 in0.0 mm
05:15 PM 68.0°F20.0°C 46.5°F8.1°C 46% 12.1 mph NNW19.5 kmh NNW 22.1 mph35.6 kmh 30.16 in1021.3 mb 0.00 in0.0 mm 0.00 in0.0 mm 0.00 in0.0 mm
05:20 PM 68.0°F20.0°C 47.0°F8.3°C 47% 12.1 mph NW19.5 kmh NW 20.6 mph33.2 kmh 30.15 in1021.0 mb 0.00 in0.0 mm 0.00 in0.0 mm 0.00 in0.0 mm
05:25 PM 68.0°F20.0°C 47.0°F8.3°C 47% 12.1 mph NNW19.5 kmh NNW 21.3 mph34.3 kmh 30.16 in1021.3 mb 0.00 in0.0 mm 0.00 in0.0 mm 0.00 in0.0 mm
05:30 PM 68.0°F20.0°C 47.0°F8.3°C 47% 10.7 mph NNW17.2 kmh NNW 21.3 mph34.3 kmh 30.16 in1021.3 mb 0.00 in0.0 mm 0.00 in0.0 mm 0.00 in0.0 mm
05:35 PM 67.3°F19.6°C 46.9°F8.3°C 48% 9.8 mph NNW15.8 kmh NNW 21.3 mph34.3 kmh 30.16 in1021.3 mb 0.00 in0.0 mm 0.00 in0.0 mm 0.00 in0.0 mm
05:40 PM 66.6°F19.2°C 47.4°F8.6°C 50% 9.2 mph NNW14.8 kmh NNW 19.0 mph30.6 kmh 30.16 in1021.3 mb 0.00 in0.0 mm 0.00 in0.0 mm 0.00 in0.0 mm
05:45 PM 66.4°F19.1°C 47.7°F8.7°C 51% 9.2 mph NW14.8 kmh NW 19.0 mph30.6 kmh 30.16 in1021.3 mb 0.00 in0.0 mm 0.00 in0.0 mm 0.00 in0.0 mm
05:50 PM 66.2°F19.0°C 47.6°F8.7°C 51% 9.8 mph NNW15.8 kmh NNW 18.3 mph29.5 kmh 30.16 in1021.3 mb 0.00 in0.0 mm 0.00 in0.0 mm 0.00 in0.0 mm
05:55 PM 66.6°F19.2°C 48.4°F9.1°C 52% 10.7 mph NNW17.2 kmh NNW 18.3 mph29.5 kmh 30.16 in1021.3 mb 0.00 in0.0 mm 0.00 in0.0 mm 0.00 in0.0 mm
06:00 PM 66.9°F19.4°C 48.2°F9.0°C 51% 12.1 mph N19.5 kmh N 19.0 mph30.6 kmh 30.16 in1021.3 mb 0.00 in0.0 mm 0.00 in0.0 mm 0.00 in0.0 mm
06:05 PM 66.9°F19.4°C 47.7°F8.7°C 50% 16.8 mph N27.0 kmh N 24.4 mph39.3 kmh 30.16 in1021.3 mb 0.00 in0.0 mm 0.00 in0.0 mm 0.00 in0.0 mm
06:10 PM 66.7°F19.3°C 47.5°F8.6°C 50% 9.8 mph NW15.8 kmh NW 24.4 mph39.3 kmh 30.16 in1021.3 mb 0.00 in0.0 mm 0.00 in0.0 mm 0.00 in0.0 mm
06:15 PM 66.6°F19.2°C 47.4°F8.6°C 50% 10.7 mph N17.2 kmh N 24.4 mph39.3 kmh 30.17 in1021.7 mb 0.00 in0.0 mm 0.00 in0.0 mm 0.00 in0.0 mm
06:20 PM 66.2°F19.0°C 47.6°F8.7°C 51% 9.8 mph NNE15.8 kmh NNE 17.4 mph28.0 kmh 30.16 in1021.3 mb 0.00 in0.0 mm 0.00 in0.0 mm 0.00 in0.0 mm
06:25 PM 66.0°F18.9°C 47.9°F8.8°C 52% 10.7 mph N17.2 kmh N 17.4 mph28.0 kmh 30.16 in1021.3 mb 0.00 in0.0 mm 0.00 in0.0 mm 0.00 in0.0 mm
06:30 PM 66.0°F18.9°C 47.9°F8.8°C 52% 11.4 mph N18.3 kmh N 16.8 mph27.0 kmh 30.16 in1021.3 mb 0.00 in0.0 mm 0.00 in0.0 mm 0.00 in0.0 mm
06:35 PM 65.8°F18.8°C 47.7°F8.7°C 52% 9.8 mph NNW15.8 kmh NNW 18.3 mph29.5 kmh 30.16 in1021.3 mb 0.00 in0.0 mm 0.00 in0.0 mm 0.00 in0.0 mm
06:40 PM 65.3°F18.5°C 47.2°F8.4°C 52% 7.6 mph NW12.2 kmh NW 18.3 mph29.5 kmh 30.17 in1021.7 mb 0.00 in0.0 mm 0.00 in0.0 mm 0.00 in0.0 mm
06:45 PM 65.1°F18.4°C 48.1°F8.9°C 54% 9.8 mph NNW15.8 kmh NNW 16.8 mph27.0 kmh 30.17 in1021.7 mb 0.00 in0.0 mm 0.00 in0.0 mm 0.00 in0.0 mm
06:50 PM 64.8°F18.2°C 47.2°F8.4°C 53% 10.7 mph N17.2 kmh N 15.9 mph25.6 kmh 30.17 in1021.7 mb 0.00 in0.0 mm 0.00 in0.0 mm 0.00 in0.0 mm
06:55 PM 64.2°F17.9°C 46.7°F8.2°C 53% 8.3 mph N13.4 kmh N 15.9 mph25.6 kmh 30.17 in1021.7 mb 0.00 in0.0 mm 0.00 in0.0 mm 0.00 in0.0 mm
07:00 PM 63.9°F17.7°C 46.9°F8.3°C 54% 13.0 mph N20.9 kmh N 15.9 mph25.6 kmh 30.17 in1021.7 mb 0.00 in0.0 mm 0.00 in0.0 mm 0.00 in0.0 mm
07:05 PM 63.9°F17.7°C 46.9°F8.3°C 54% 13.0 mph N20.9 kmh N 15.9 mph25.6 kmh 30.17 in1021.7 mb 0.00 in0.0 mm 0.00 in0.0 mm 0.00 in0.0 mm
07:10 PM 63.5°F17.5°C 47.1°F8.4°C 55% 13.0 mph N20.9 kmh N 15.9 mph25.6 kmh 30.17 in1021.7 mb 0.00 in0.0 mm 0.00 in0.0 mm 0.00 in0.0 mm
07:15 PM 63.1°F17.3°C 46.7°F8.2°C 55% 9.2 mph NNW14.8 kmh NNW 16.8 mph27.0 kmh 30.18 in1022.0 mb 0.00 in0.0 mm 0.00 in0.0 mm 0.00 in0.0 mm
07:20 PM 62.6°F17.0°C 46.2°F7.9°C 55% 13.6 mph NNW21.9 kmh NNW 19.7 mph31.7 kmh 30.18 in1022.0 mb 0.00 in0.0 mm 0.00 in0.0 mm 0.00 in0.0 mm
07:25 PM 62.2°F16.8°C 46.8°F8.2°C 57% 9.8 mph N15.8 kmh N 19.7 mph31.7 kmh 30.17 in1021.7 mb 0.00 in0.0 mm 0.00 in0.0 mm 0.00 in0.0 mm
07:30 PM 61.9°F16.6°C 47.0°F8.3°C 58% 9.2 mph N14.8 kmh N 19.7 mph31.7 kmh 30.18 in1022.0 mb 0.00 in0.0 mm 0.00 in0.0 mm 0.00 in0.0 mm
07:35 PM 61.2°F16.2°C 46.7°F8.2°C 59% 11.4 mph N18.3 kmh N 19.0 mph30.6 kmh 30.18 in1022.0 mb 0.00 in0.0 mm 0.00 in0.0 mm 0.00 in0.0 mm
07:40 PM 60.8°F16.0°C 46.4°F8.0°C 59% 9.8 mph NNW15.8 kmh NNW 15.9 mph25.6 kmh 30.18 in1022.0 mb 0.00 in0.0 mm 0.00 in0.0 mm 0.00 in0.0 mm
07:45 PM 60.6°F15.9°C 47.1°F8.4°C 61% 9.8 mph N15.8 kmh N 16.8 mph27.0 kmh 30.17 in1021.7 mb 0.00 in0.0 mm 0.00 in0.0 mm 0.00 in0.0 mm
07:50 PM 60.4°F15.8°C 47.4°F8.6°C 62% 10.7 mph N17.2 kmh N 16.8 mph27.0 kmh 30.17 in1021.7 mb 0.00 in0.0 mm 0.00 in0.0 mm 0.00 in0.0 mm
07:55 PM 60.4°F15.8°C 47.4°F8.6°C 62% 10.7 mph N17.2 kmh N 19.7 mph31.7 kmh 30.17 in1021.7 mb 0.00 in0.0 mm 0.00 in0.0 mm 0.00 in0.0 mm
08:00 PM 60.3°F15.7°C 47.2°F8.4°C 62% 15.9 mph N25.6 kmh N 21.3 mph34.3 kmh 30.18 in1022.0 mb 0.00 in0.0 mm 0.00 in0.0 mm 0.00 in0.0 mm
08:05 PM 60.3°F15.7°C 47.2°F8.4°C 62% 12.1 mph N19.5 kmh N 21.3 mph34.3 kmh 30.17 in1021.7 mb 0.00 in0.0 mm 0.00 in0.0 mm 0.00 in0.0 mm
08:10 PM 60.3°F15.7°C 47.2°F8.4°C 62% 18.3 mph N29.5 kmh N 24.4 mph39.3 kmh 30.18 in1022.0 mb 0.00 in0.0 mm 0.00 in0.0 mm 0.00 in0.0 mm
08:15 PM 60.3°F15.7°C 47.2°F8.4°C 62% 13.0 mph N20.9 kmh N 24.4 mph39.3 kmh 30.19 in1022.4 mb 0.00 in0.0 mm 0.00 in0.0 mm 0.00 in0.0 mm
08:20 PM 60.1°F15.6°C 47.0°F8.3°C 62% 11.4 mph NNW18.3 kmh NNW 20.6 mph33.2 kmh 30.19 in1022.4 mb 0.00 in0.0 mm 0.00 in0.0 mm 0.00 in0.0 mm
08:25 PM 60.1°F15.6°C 47.0°F8.3°C 62% 9.2 mph N14.8 kmh N 17.4 mph28.0 kmh 30.19 in1022.4 mb 0.00 in0.0 mm 0.00 in0.0 mm 0.00 in0.0 mm
08:30 PM 59.9°F15.5°C 47.3°F8.5°C 63% 8.3 mph N13.4 kmh N 17.4 mph28.0 kmh 30.19 in1022.4 mb 0.00 in0.0 mm 0.00 in0.0 mm 0.00 in0.0 mm
08:35 PM 59.7°F15.4°C 47.1°F8.4°C 63% 9.8 mph N15.8 kmh N 16.8 mph27.0 kmh 30.19 in1022.4 mb 0.00 in0.0 mm 0.00 in0.0 mm 0.00 in0.0 mm
08:40 PM 59.5°F15.3°C 46.9°F8.3°C 63% 14.5 mph N23.3 kmh N 19.0 mph30.6 kmh 30.19 in1022.4 mb 0.00 in0.0 mm 0.00 in0.0 mm 0.00 in0.0 mm
08:45 PM 59.5°F15.3°C 46.9°F8.3°C 63% 7.6 mph NNW12.2 kmh NNW 19.0 mph30.6 kmh 30.20 in1022.7 mb 0.00 in0.0 mm 0.00 in0.0 mm 0.00 in0.0 mm
08:50 PM 59.5°F15.3°C 46.9°F8.3°C 63% 4.5 mph NNW7.2 kmh NNW 19.0 mph30.6 kmh 30.20 in1022.7 mb 0.00 in0.0 mm 0.00 in0.0 mm 0.00 in0.0 mm
08:55 PM 59.5°F15.3°C 46.9°F8.3°C 63% 3.8 mph N6.1 kmh N 13.6 mph21.9 kmh 30.20 in1022.7 mb 0.00 in0.0 mm 0.00 in0.0 mm 0.00 in0.0 mm
09:00 PM 59.4°F15.2°C 46.8°F8.2°C 63% 3.1 mph W5.0 kmh W 6.0 mph9.7 kmh 30.21 in1023.0 mb 0.00 in0.0 mm 0.00 in0.0 mm 0.00 in0.0 mm
09:05 PM 59.4°F15.2°C 46.8°F8.2°C 63% 3.1 mph SW5.0 kmh SW 5.4 mph8.7 kmh 30.20 in1022.7 mb 0.00 in0.0 mm 0.00 in0.0 mm 0.00 in0.0 mm
09:10 PM 58.6°F14.8°C 47.3°F8.5°C 66% 1.6 mph WSW2.6 kmh WSW 5.4 mph8.7 kmh 30.20 in1022.7 mb 0.00 in0.0 mm 0.00 in0.0 mm 0.00 in0.0 mm
09:15 PM 58.1°F14.5°C 47.2°F8.4°C 67% 3.1 mph WSW5.0 kmh WSW 8.3 mph13.4 kmh 30.21 in1023.0 mb 0.00 in0.0 mm 0.00 in0.0 mm 0.00 in0.0 mm
09:20 PM 57.7°F14.3°C 47.3°F8.5°C 68% 3.1 mph W5.0 kmh W 8.3 mph13.4 kmh 30.21 in1023.0 mb 0.00 in0.0 mm 0.00 in0.0 mm 0.00 in0.0 mm
09:25 PM 57.2°F14.0°C 47.1°F8.4°C 69% 3.1 mph NW5.0 kmh NW 6.9 mph11.1 kmh 30.21 in1023.0 mb 0.00 in0.0 mm 0.00 in0.0 mm 0.00 in0.0 mm
09:30 PM 57.0°F13.9°C 47.3°F8.5°C 70% 2.2 mph NW3.5 kmh NW 5.4 mph8.7 kmh 30.21 in1023.0 mb 0.00 in0.0 mm 0.00 in0.0 mm 0.00 in0.0 mm
09:35 PM 56.7°F13.7°C 47.4°F8.6°C 71% 3.8 mph NW6.1 kmh NW 5.4 mph8.7 kmh 30.21 in1023.0 mb 0.00 in0.0 mm 0.00 in0.0 mm 0.00 in0.0 mm
09:40 PM 56.3°F13.5°C 47.4°F8.6°C 72% 3.8 mph NW6.1 kmh NW 6.9 mph11.1 kmh 30.22 in1023.4 mb 0.00 in0.0 mm 0.00 in0.0 mm 0.00 in0.0 mm
09:45 PM 56.1°F13.4°C 47.2°F8.4°C 72% 3.8 mph WNW6.1 kmh WNW 6.9 mph11.1 kmh 30.22 in1023.4 mb 0.00 in0.0 mm 0.00 in0.0 mm 0.00 in0.0 mm
09:50 PM 56.1°F13.4°C 47.6°F8.7°C 73% 4.5 mph N7.2 kmh N 6.9 mph11.1 kmh 30.23 in1023.7 mb 0.00 in0.0 mm 0.00 in0.0 mm 0.00 in0.0 mm
09:55 PM 56.3°F13.5°C 47.8°F8.8°C 73% 1.6 mph NE2.6 kmh NE 9.2 mph14.8 kmh 30.22 in1023.4 mb 0.00 in0.0 mm 0.00 in0.0 mm 0.00 in0.0 mm
10:00 PM 57.0°F13.9°C 47.7°F8.7°C 71% 7.6 mph NNE12.2 kmh NNE 11.4 mph18.3 kmh 30.22 in1023.4 mb 0.00 in0.0 mm 0.00 in0.0 mm 0.00 in0.0 mm
10:05 PM 57.4°F14.1°C 47.3°F8.5°C 69% 4.5 mph NW7.2 kmh NW 11.4 mph18.3 kmh 30.22 in1023.4 mb 0.00 in0.0 mm 0.00 in0.0 mm 0.00 in0.0 mm
10:10 PM 57.4°F14.1°C 47.3°F8.5°C 69% 2.2 mph W3.5 kmh W 9.2 mph14.8 kmh 30.22 in1023.4 mb 0.00 in0.0 mm 0.00 in0.0 mm 0.00 in0.0 mm
10:15 PM 57.6°F14.2°C 47.5°F8.6°C 69% 6.0 mph S9.7 kmh S 10.7 mph17.2 kmh 30.22 in1023.4 mb 0.00 in0.0 mm 0.00 in0.0 mm 0.00 in0.0 mm
10:20 PM 57.2°F14.0°C 47.5°F8.6°C 70% 4.5 mph SSW7.2 kmh SSW 10.7 mph17.2 kmh 30.22 in1023.4 mb 0.00 in0.0 mm 0.00 in0.0 mm 0.00 in0.0 mm
10:25 PM 56.8°F13.8°C 47.9°F8.8°C 72% 5.4 mph SW8.7 kmh SW 7.6 mph12.2 kmh 30.22 in1023.4 mb 0.00 in0.0 mm 0.00 in0.0 mm 0.00 in0.0 mm
10:30 PM 56.5°F13.6°C 47.9°F8.8°C 73% 3.1 mph S5.0 kmh S 7.6 mph12.2 kmh 30.22 in1023.4 mb 0.00 in0.0 mm 0.00 in0.0 mm 0.00 in0.0 mm
10:35 PM 56.3°F13.5°C 47.8°F8.8°C 73% 1.6 mph S2.6 kmh S 7.6 mph12.2 kmh 30.22 in1023.4 mb 0.00 in0.0 mm 0.00 in0.0 mm 0.00 in0.0 mm
10:40 PM 55.6°F13.1°C 47.4°F8.6°C 74% 7.6 mph NNW12.2 kmh NNW 10.7 mph17.2 kmh 30.22 in1023.4 mb 0.00 in0.0 mm 0.00 in0.0 mm 0.00 in0.0 mm
10:45 PM 55.4°F13.0°C 47.6°F8.7°C 75% 7.6 mph NNW12.2 kmh NNW 10.7 mph17.2 kmh 30.22 in1023.4 mb 0.00 in0.0 mm 0.00 in0.0 mm 0.00 in0.0 mm
10:50 PM 55.8°F13.2°C 48.0°F8.9°C 75% 3.8 mph NNW6.1 kmh NNW 10.7 mph17.2 kmh 30.22 in1023.4 mb 0.00 in0.0 mm 0.00 in0.0 mm 0.00 in0.0 mm
10:55 PM 55.6°F13.1°C 47.4°F8.6°C 74% 4.5 mph NW7.2 kmh NW 9.8 mph15.8 kmh 30.22 in1023.4 mb 0.00 in0.0 mm 0.00 in0.0 mm 0.00 in0.0 mm
11:00 PM 56.3°F13.5°C 47.8°F8.8°C 73% 3.1 mph WNW5.0 kmh WNW 7.6 mph12.2 kmh 30.23 in1023.7 mb 0.00 in0.0 mm 0.00 in0.0 mm 0.00 in0.0 mm
11:05 PM 56.3°F13.5°C 47.8°F8.8°C 73% 3.1 mph W5.0 kmh W 7.6 mph12.2 kmh 30.23 in1023.7 mb 0.00 in0.0 mm 0.00 in0.0 mm 0.00 in0.0 mm
11:10 PM 56.7°F13.7°C 47.7°F8.7°C 72% 3.8 mph SW6.1 kmh SW 10.7 mph17.2 kmh 30.23 in1023.7 mb 0.00 in0.0 mm 0.00 in0.0 mm 0.00 in0.0 mm
11:15 PM 56.7°F13.7°C 47.7°F8.7°C 72% 2.2 mph ESE3.5 kmh ESE 10.7 mph17.2 kmh 30.24 in1024.0 mb 0.00 in0.0 mm 0.00 in0.0 mm 0.00 in0.0 mm
11:20 PM 56.5°F13.6°C 47.6°F8.7°C 72% 3.8 mph SSE6.1 kmh SSE 6.9 mph11.1 kmh 30.24 in1024.0 mb 0.00 in0.0 mm 0.00 in0.0 mm 0.00 in0.0 mm
11:25 PM 56.3°F13.5°C 47.8°F8.8°C 73% Calm Calm 6.0 mph9.7 kmh 30.24 in1024.0 mb 0.00 in0.0 mm 0.00 in0.0 mm 0.00 in0.0 mm
11:30 PM 56.1°F13.4°C 47.6°F8.7°C 73% 1.6 mph S2.6 kmh S 6.0 mph9.7 kmh 30.24 in1024.0 mb 0.00 in0.0 mm 0.00 in0.0 mm 0.00 in0.0 mm
11:35 PM 55.8°F13.2°C 47.6°F8.7°C 74% 3.1 mph WSW5.0 kmh WSW 5.4 mph8.7 kmh 30.24 in1024.0 mb 0.00 in0.0 mm 0.00 in0.0 mm 0.00 in0.0 mm
11:40 PM 55.4°F13.0°C 47.6°F8.7°C 75% 1.6 mph WSW2.6 kmh WSW 5.4 mph8.7 kmh 30.24 in1024.0 mb 0.00 in0.0 mm 0.00 in0.0 mm 0.00 in0.0 mm
11:45 PM 55.4°F13.0°C 47.6°F8.7°C 75% 1.6 mph SW2.6 kmh SW 6.0 mph9.7 kmh 30.24 in1024.0 mb 0.00 in0.0 mm 0.00 in0.0 mm 0.00 in0.0 mm
11:50 PM 55.2°F12.9°C 47.8°F8.8°C 76% 2.2 mph WSW3.5 kmh WSW 6.0 mph9.7 kmh 30.25 in1024.4 mb 0.00 in0.0 mm 0.00 in0.0 mm 0.00 in0.0 mm
11:55 PM 55.0°F12.8°C 47.6°F8.7°C 76% 1.6 mph W2.6 kmh W 3.8 mph6.1 kmh 30.25 in1024.4 mb 0.00 in0.0 mm 0.00 in0.0 mm 0.00 in0.0 mm